sensor_id;sensor_type;location;lat;lon;timestamp;temperature;humidity
10300;DHT22;5195;48.562;9.192;2023-12-29T00:00:00;10.90;55.90
10300;DHT22;5195;48.562;9.192;2023-12-29T00:02:25;10.80;55.80
10300;DHT22;5195;48.562;9.192;2023-12-29T00:04:51;10.70;56.10
10300;DHT22;5195;48.562;9.192;2023-12-29T00:07:17;10.90;56.10
10300;DHT22;5195;48.562;9.192;2023-12-29T00:09:42;11.00;55.90
10300;DHT22;5195;48.562;9.192;2023-12-29T00:12:08;10.90;56.00
10300;DHT22;5195;48.562;9.192;2023-12-29T00:14:36;11.00;55.80
10300;DHT22;5195;48.562;9.192;2023-12-29T00:16:59;11.40;55.20
10300;DHT22;5195;48.562;9.192;2023-12-29T00:19:25;11.40;55.30
10300;DHT22;5195;48.562;9.192;2023-12-29T00:21:50;11.50;54.80
10300;DHT22;5195;48.562;9.192;2023-12-29T00:24:16;11.40;54.60
10300;DHT22;5195;48.562;9.192;2023-12-29T00:26:42;11.30;54.80
10300;DHT22;5195;48.562;9.192;2023-12-29T00:29:07;11.30;54.80
10300;DHT22;5195;48.562;9.192;2023-12-29T00:31:33;11.60;54.20
10300;DHT22;5195;48.562;9.192;2023-12-29T00:33:59;12.00;53.00
10300;DHT22;5195;48.562;9.192;2023-12-29T00:36:25;12.00;52.90
10300;DHT22;5195;48.562;9.192;2023-12-29T00:38:50;11.90;53.00
10300;DHT22;5195;48.562;9.192;2023-12-29T00:41:16;11.70;53.50
10300;DHT22;5195;48.562;9.192;2023-12-29T00:43:42;11.40;54.00
10300;DHT22;5195;48.562;9.192;2023-12-29T00:46:07;11.50;54.40
10300;DHT22;5195;48.562;9.192;2023-12-29T00:48:37;11.40;54.30
10300;DHT22;5195;48.562;9.192;2023-12-29T00:51:04;11.20;54.50
10300;DHT22;5195;48.562;9.192;2023-12-29T00:53:30;11.10;54.80
10300;DHT22;5195;48.562;9.192;2023-12-29T00:55:57;11.00;55.20
10300;DHT22;5195;48.562;9.192;2023-12-29T00:58:23;11.10;54.60
10300;DHT22;5195;48.562;9.192;2023-12-29T01:00:50;11.10;54.50
10300;DHT22;5195;48.562;9.192;2023-12-29T01:03:15;11.10;54.50
10300;DHT22;5195;48.562;9.192;2023-12-29T01:05:42;11.00;54.70
10300;DHT22;5195;48.562;9.192;2023-12-29T01:08:08;11.10;54.30
10300;DHT22;5195;48.562;9.192;2023-12-29T01:10:33;11.50;53.80
10300;DHT22;5195;48.562;9.192;2023-12-29T01:12:59;11.50;53.60
10300;DHT22;5195;48.562;9.192;2023-12-29T01:15:25;11.60;53.90
10300;DHT22;5195;48.562;9.192;2023-12-29T01:17:51;11.50;53.40
10300;DHT22;5195;48.562;9.192;2023-12-29T01:20:16;11.70;53.50
10300;DHT22;5195;48.562;9.192;2023-12-29T01:22:42;11.90;52.80
10300;DHT22;5195;48.562;9.192;2023-12-29T01:25:07;11.80;52.80
10300;DHT22;5195;48.562;9.192;2023-12-29T01:27:33;11.60;53.30
10300;DHT22;5195;48.562;9.192;2023-12-29T01:30:00;11.40;53.80
10300;DHT22;5195;48.562;9.192;2023-12-29T01:32:27;11.50;53.40
10300;DHT22;5195;48.562;9.192;2023-12-29T01:34:53;11.80;52.80
10300;DHT22;5195;48.562;9.192;2023-12-29T01:37:19;11.80;52.80
10300;DHT22;5195;48.562;9.192;2023-12-29T01:39:44;11.90;52.50
10300;DHT22;5195;48.562;9.192;2023-12-29T01:42:11;11.90;52.60
10300;DHT22;5195;48.562;9.192;2023-12-29T01:44:37;11.70;52.90
10300;DHT22;5195;48.562;9.192;2023-12-29T01:47:03;11.50;53.30
10300;DHT22;5195;48.562;9.192;2023-12-29T01:49:28;11.60;53.20
10300;DHT22;5195;48.562;9.192;2023-12-29T01:51:57;11.60;53.30
10300;DHT22;5195;48.562;9.192;2023-12-29T01:54:23;11.70;53.10
10300;DHT22;5195;48.562;9.192;2023-12-29T01:56:51;11.70;53.10
10300;DHT22;5195;48.562;9.192;2023-12-29T01:59:16;11.50;53.30
10300;DHT22;5195;48.562;9.192;2023-12-29T02:01:43;11.60;53.20
10300;DHT22;5195;48.562;9.192;2023-12-29T02:04:09;11.60;53.10
10300;DHT22;5195;48.562;9.192;2023-12-29T02:06:34;11.50;53.50
10300;DHT22;5195;48.562;9.192;2023-12-29T02:09:01;11.30;53.70
10300;DHT22;5195;48.562;9.192;2023-12-29T02:11:27;11.10;53.90
10300;DHT22;5195;48.562;9.192;2023-12-29T02:13:52;11.00;54.10
10300;DHT22;5195;48.562;9.192;2023-12-29T02:16:36;11.20;54.50
10300;DHT22;5195;48.562;9.192;2023-12-29T02:19:00;11.50;54.10
10300;DHT22;5195;48.562;9.192;2023-12-29T02:21:25;11.50;53.80
10300;DHT22;5195;48.562;9.192;2023-12-29T02:23:51;11.30;54.10
10300;DHT22;5195;48.562;9.192;2023-12-29T02:26:17;11.40;54.30
10300;DHT22;5195;48.562;9.192;2023-12-29T02:28:44;11.40;54.20
10300;DHT22;5195;48.562;9.192;2023-12-29T02:31:14;11.30;54.40
10300;DHT22;5195;48.562;9.192;2023-12-29T02:33:40;11.40;54.80
10300;DHT22;5195;48.562;9.192;2023-12-29T02:36:07;11.40;54.60
10300;DHT22;5195;48.562;9.192;2023-12-29T02:38:33;11.30;54.80
10300;DHT22;5195;48.562;9.192;2023-12-29T02:41:00;11.10;55.00
10300;DHT22;5195;48.562;9.192;2023-12-29T02:43:25;11.00;55.20
10300;DHT22;5195;48.562;9.192;2023-12-29T02:45:51;11.20;55.50
10300;DHT22;5195;48.562;9.192;2023-12-29T02:48:18;11.50;55.10
10300;DHT22;5195;48.562;9.192;2023-12-29T02:50:44;11.90;54.60
10300;DHT22;5195;48.562;9.192;2023-12-29T02:53:10;12.10;54.10
10300;DHT22;5195;48.562;9.192;2023-12-29T02:55:36;11.70;54.70
10300;DHT22;5195;48.562;9.192;2023-12-29T02:58:02;11.70;54.30
10300;DHT22;5195;48.562;9.192;2023-12-29T03:00:30;11.50;54.70
10300;DHT22;5195;48.562;9.192;2023-12-29T03:02:57;11.30;55.10
10300;DHT22;5195;48.562;9.192;2023-12-29T03:05:22;11.20;55.40
10300;DHT22;5195;48.562;9.192;2023-12-29T03:07:48;11.10;55.60
10300;DHT22;5195;48.562;9.192;2023-12-29T03:10:14;10.90;55.90
10300;DHT22;5195;48.562;9.192;2023-12-29T03:12:41;11.10;56.60
10300;DHT22;5195;48.562;9.192;2023-12-29T03:15:09;11.10;56.60
10300;DHT22;5195;48.562;9.192;2023-12-29T03:17:35;11.20;56.20
10300;DHT22;5195;48.562;9.192;2023-12-29T03:20:02;11.60;55.80
10300;DHT22;5195;48.562;9.192;2023-12-29T03:22:26;11.70;55.90
10300;DHT22;5195;48.562;9.192;2023-12-29T03:24:52;11.60;55.40
10300;DHT22;5195;48.562;9.192;2023-12-29T03:27:18;11.20;55.90
10300;DHT22;5195;48.562;9.192;2023-12-29T03:29:44;11.10;55.80
10300;DHT22;5195;48.562;9.192;2023-12-29T03:32:09;11.30;56.40
10300;DHT22;5195;48.562;9.192;2023-12-29T03:34:36;11.00;56.50
10300;DHT22;5195;48.562;9.192;2023-12-29T03:37:01;11.10;56.30
10300;DHT22;5195;48.562;9.192;2023-12-29T03:39:27;10.90;56.50
10300;DHT22;5195;48.562;9.192;2023-12-29T03:41:53;11.00;57.00
10300;DHT22;5195;48.562;9.192;2023-12-29T03:44:18;11.00;56.70
10300;DHT22;5195;48.562;9.192;2023-12-29T03:46:44;10.90;56.80
10300;DHT22;5195;48.562;9.192;2023-12-29T03:49:09;11.10;57.30
10300;DHT22;5195;48.562;9.192;2023-12-29T03:51:36;11.70;56.20
10300;DHT22;5195;48.562;9.192;2023-12-29T03:54:01;11.70;56.20
10300;DHT22;5195;48.562;9.192;2023-12-29T03:56:27;11.90;55.80
10300;DHT22;5195;48.562;9.192;2023-12-29T03:58:52;11.80;55.50
10300;DHT22;5195;48.562;9.192;2023-12-29T04:01:18;11.50;55.90
10300;DHT22;5195;48.562;9.192;2023-12-29T04:03:44;11.30;56.30
10300;DHT22;5195;48.562;9.192;2023-12-29T04:06:09;11.10;56.50
10300;DHT22;5195;48.562;9.192;2023-12-29T04:08:38;11.20;56.90
10300;DHT22;5195;48.562;9.192;2023-12-29T04:11:03;11.20;56.60
10300;DHT22;5195;48.562;9.192;2023-12-29T04:13:29;11.40;56.90
10300;DHT22;5195;48.562;9.192;2023-12-29T04:15:57;11.30;56.50
10300;DHT22;5195;48.562;9.192;2023-12-29T04:18:23;11.20;56.70
10300;DHT22;5195;48.562;9.192;2023-12-29T04:20:48;11.00;56.90
10300;DHT22;5195;48.562;9.192;2023-12-29T04:23:13;10.90;57.20
10300;DHT22;5195;48.562;9.192;2023-12-29T04:25:40;11.10;57.30
10300;DHT22;5195;48.562;9.192;2023-12-29T04:28:08;11.10;57.30
10300;DHT22;5195;48.562;9.192;2023-12-29T04:30:34;11.00;57.30
10300;DHT22;5195;48.562;9.192;2023-12-29T04:33:01;11.00;57.90
10300;DHT22;5195;48.562;9.192;2023-12-29T04:35:27;11.00;57.90
10300;DHT22;5195;48.562;9.192;2023-12-29T04:37:53;11.60;57.80
10300;DHT22;5195;48.562;9.192;2023-12-29T04:40:19;11.60;57.10
10300;DHT22;5195;48.562;9.192;2023-12-29T04:42:44;11.50;57.40
10300;DHT22;5195;48.562;9.192;2023-12-29T04:45:12;11.30;57.50
10300;DHT22;5195;48.562;9.192;2023-12-29T04:47:38;11.30;57.40
10300;DHT22;5195;48.562;9.192;2023-12-29T04:50:05;11.30;57.20
10300;DHT22;5195;48.562;9.192;2023-12-29T04:52:33;11.40;57.40
10300;DHT22;5195;48.562;9.192;2023-12-29T04:55:00;11.60;57.00
10300;DHT22;5195;48.562;9.192;2023-12-29T04:57:27;11.70;56.60
10300;DHT22;5195;48.562;9.192;2023-12-29T04:59:53;11.80;56.40
10300;DHT22;5195;48.562;9.192;2023-12-29T05:02:18;11.70;56.50
10300;DHT22;5195;48.562;9.192;2023-12-29T05:04:45;11.10;57.40
10300;DHT22;5195;48.562;9.192;2023-12-29T05:07:11;11.10;57.40
10300;DHT22;5195;48.562;9.192;2023-12-29T05:09:36;10.90;57.80
10300;DHT22;5195;48.562;9.192;2023-12-29T05:12:02;10.70;57.90
10300;DHT22;5195;48.562;9.192;2023-12-29T05:14:28;10.50;58.30
10300;DHT22;5195;48.562;9.192;2023-12-29T05:16:54;10.50;58.30
10300;DHT22;5195;48.562;9.192;2023-12-29T05:19:20;10.70;58.90
10300;DHT22;5195;48.562;9.192;2023-12-29T05:21:46;11.00;58.50
10300;DHT22;5195;48.562;9.192;2023-12-29T05:24:12;11.00;58.10
10300;DHT22;5195;48.562;9.192;2023-12-29T05:26:37;11.00;58.20
10300;DHT22;5195;48.562;9.192;2023-12-29T05:29:03;11.30;57.80
10300;DHT22;5195;48.562;9.192;2023-12-29T05:31:28;11.20;57.50
10300;DHT22;5195;48.562;9.192;2023-12-29T05:33:55;11.20;57.90
10300;DHT22;5195;48.562;9.192;2023-12-29T05:36:19;11.10;57.70
10300;DHT22;5195;48.562;9.192;2023-12-29T05:38:46;10.90;58.00
10300;DHT22;5195;48.562;9.192;2023-12-29T05:41:15;10.90;58.40
10300;DHT22;5195;48.562;9.192;2023-12-29T05:43:38;10.80;58.20
10300;DHT22;5195;48.562;9.192;2023-12-29T05:46:08;10.90;58.60
10300;DHT22;5195;48.562;9.192;2023-12-29T05:48:29;11.20;58.30
10300;DHT22;5195;48.562;9.192;2023-12-29T05:50:55;11.40;57.70
10300;DHT22;5195;48.562;9.192;2023-12-29T05:53:21;11.60;57.30
10300;DHT22;5195;48.562;9.192;2023-12-29T05:55:46;11.50;57.20
10300;DHT22;5195;48.562;9.192;2023-12-29T05:58:12;11.50;57.60
10300;DHT22;5195;48.562;9.192;2023-12-29T06:00:37;11.60;57.40
10300;DHT22;5195;48.562;9.192;2023-12-29T06:03:03;11.80;57.10
10300;DHT22;5195;48.562;9.192;2023-12-29T06:05:29;11.60;56.90
10300;DHT22;5195;48.562;9.192;2023-12-29T06:07:54;11.60;57.20
10300;DHT22;5195;48.562;9.192;2023-12-29T06:10:21;11.80;57.10
10300;DHT22;5195;48.562;9.192;2023-12-29T06:12:47;11.60;56.90
10300;DHT22;5195;48.562;9.192;2023-12-29T06:15:13;11.50;57.10
10300;DHT22;5195;48.562;9.192;2023-12-29T06:17:39;11.50;57.00
10300;DHT22;5195;48.562;9.192;2023-12-29T06:20:05;11.60;57.30
10300;DHT22;5195;48.562;9.192;2023-12-29T06:22:30;11.80;57.10
10300;DHT22;5195;48.562;9.192;2023-12-29T06:24:56;11.70;56.90
10300;DHT22;5195;48.562;9.192;2023-12-29T06:27:22;11.40;57.20
10300;DHT22;5195;48.562;9.192;2023-12-29T06:29:47;11.20;57.60
10300;DHT22;5195;48.562;9.192;2023-12-29T06:32:14;11.30;58.10
10300;DHT22;5195;48.562;9.192;2023-12-29T06:34:40;11.50;57.70
10300;DHT22;5195;48.562;9.192;2023-12-29T06:37:05;11.80;57.30
10300;DHT22;5195;48.562;9.192;2023-12-29T06:39:31;12.00;56.90
10300;DHT22;5195;48.562;9.192;2023-12-29T06:41:57;11.80;56.60
10300;DHT22;5195;48.562;9.192;2023-12-29T06:44:25;11.50;56.90
10300;DHT22;5195;48.562;9.192;2023-12-29T06:46:50;11.20;57.20
10300;DHT22;5195;48.562;9.192;2023-12-29T06:49:16;11.20;57.90
10300;DHT22;5195;48.562;9.192;2023-12-29T06:51:41;11.20;57.80
10300;DHT22;5195;48.562;9.192;2023-12-29T06:54:08;10.80;59.10
10300;DHT22;5195;48.562;9.192;2023-12-29T06:56:34;10.80;58.40
10300;DHT22;5195;48.562;9.192;2023-12-29T06:59:00;10.90;59.30
10300;DHT22;5195;48.562;9.192;2023-12-29T07:01:30;11.20;59.40
10300;DHT22;5195;48.562;9.192;2023-12-29T07:03:55;11.20;58.90
10300;DHT22;5195;48.562;9.192;2023-12-29T07:06:21;11.00;59.10
10300;DHT22;5195;48.562;9.192;2023-12-29T07:08:46;10.80;59.50
10300;DHT22;5195;48.562;9.192;2023-12-29T07:11:12;11.30;60.20
10300;DHT22;5195;48.562;9.192;2023-12-29T07:13:39;11.20;60.30
10300;DHT22;5195;48.562;9.192;2023-12-29T07:16:05;11.20;59.70
10300;DHT22;5195;48.562;9.192;2023-12-29T07:18:31;11.30;59.80
10300;DHT22;5195;48.562;9.192;2023-12-29T07:20:57;11.30;59.40
10300;DHT22;5195;48.562;9.192;2023-12-29T07:23:23;11.10;59.40
10300;DHT22;5195;48.562;9.192;2023-12-29T07:25:49;10.90;59.70
10300;DHT22;5195;48.562;9.192;2023-12-29T07:28:16;11.00;60.20
10300;DHT22;5195;48.562;9.192;2023-12-29T07:30:42;11.00;59.90
10300;DHT22;5195;48.562;9.192;2023-12-29T07:33:09;11.20;60.00
10300;DHT22;5195;48.562;9.192;2023-12-29T07:35:36;11.40;59.40
10300;DHT22;5195;48.562;9.192;2023-12-29T07:38:02;11.80;58.10
10300;DHT22;5195;48.562;9.192;2023-12-29T07:40:28;11.80;58.10
10300;DHT22;5195;48.562;9.192;2023-12-29T07:42:53;11.70;58.00
10300;DHT22;5195;48.562;9.192;2023-12-29T07:45:19;11.70;58.10
10300;DHT22;5195;48.562;9.192;2023-12-29T07:47:45;12.00;58.00
10300;DHT22;5195;48.562;9.192;2023-12-29T07:50:11;12.00;57.30
10300;DHT22;5195;48.562;9.192;2023-12-29T07:52:39;12.20;57.00
10300;DHT22;5195;48.562;9.192;2023-12-29T07:55:05;12.20;56.50
10300;DHT22;5195;48.562;9.192;2023-12-29T07:57:30;12.40;56.30
10300;DHT22;5195;48.562;9.192;2023-12-29T07:59:56;12.20;56.30
10300;DHT22;5195;48.562;9.192;2023-12-29T08:02:21;11.90;56.80
10300;DHT22;5195;48.562;9.192;2023-12-29T08:04:49;11.90;57.00
10300;DHT22;5195;48.562;9.192;2023-12-29T08:07:14;12.10;57.30
10300;DHT22;5195;48.562;9.192;2023-12-29T08:09:40;12.30;56.20
10300;DHT22;5195;48.562;9.192;2023-12-29T08:12:06;12.20;56.10
10300;DHT22;5195;48.562;9.192;2023-12-29T08:14:32;12.30;56.40
10300;DHT22;5195;48.562;9.192;2023-12-29T08:16:58;12.30;57.20
10300;DHT22;5195;48.562;9.192;2023-12-29T08:19:23;12.10;56.80
10300;DHT22;5195;48.562;9.192;2023-12-29T08:21:50;12.00;57.20
10300;DHT22;5195;48.562;9.192;2023-12-29T08:24:15;12.10;57.20
10300;DHT22;5195;48.562;9.192;2023-12-29T08:26:45;12.50;56.70
10300;DHT22;5195;48.562;9.192;2023-12-29T08:29:10;12.70;55.80
10300;DHT22;5195;48.562;9.192;2023-12-29T08:31:36;12.90;55.20
10300;DHT22;5195;48.562;9.192;2023-12-29T08:34:01;13.00;55.00
10300;DHT22;5195;48.562;9.192;2023-12-29T08:36:30;13.10;54.70
10300;DHT22;5195;48.562;9.192;2023-12-29T08:38:56;13.00;54.60
10300;DHT22;5195;48.562;9.192;2023-12-29T08:41:24;12.90;55.30
10300;DHT22;5195;48.562;9.192;2023-12-29T08:43:49;13.00;55.10
10300;DHT22;5195;48.562;9.192;2023-12-29T08:46:15;13.20;55.10
10300;DHT22;5195;48.562;9.192;2023-12-29T08:48:41;13.20;54.80
10300;DHT22;5195;48.562;9.192;2023-12-29T08:51:06;13.30;54.50
10300;DHT22;5195;48.562;9.192;2023-12-29T08:53:32;13.40;54.50
10300;DHT22;5195;48.562;9.192;2023-12-29T08:55:57;13.40;54.40
10300;DHT22;5195;48.562;9.192;2023-12-29T08:58:23;13.20;54.40
10300;DHT22;5195;48.562;9.192;2023-12-29T09:00:49;12.90;55.00
10300;DHT22;5195;48.562;9.192;2023-12-29T09:03:14;12.90;55.60
10300;DHT22;5195;48.562;9.192;2023-12-29T09:05:41;13.10;55.40
10300;DHT22;5195;48.562;9.192;2023-12-29T09:08:07;13.30;55.10
10300;DHT22;5195;48.562;9.192;2023-12-29T09:10:33;13.70;54.90
10300;DHT22;5195;48.562;9.192;2023-12-29T09:12:59;13.70;54.60
10300;DHT22;5195;48.562;9.192;2023-12-29T09:15:25;13.80;54.20
10300;DHT22;5195;48.562;9.192;2023-12-29T09:17:50;13.60;54.00
10300;DHT22;5195;48.562;9.192;2023-12-29T09:20:16;13.60;54.10
10300;DHT22;5195;48.562;9.192;2023-12-29T09:22:42;13.40;54.20
10300;DHT22;5195;48.562;9.192;2023-12-29T09:25:08;13.20;54.60
10300;DHT22;5195;48.562;9.192;2023-12-29T09:27:35;12.70;55.20
10300;DHT22;5195;48.562;9.192;2023-12-29T09:30:04;12.80;55.30
10300;DHT22;5195;48.562;9.192;2023-12-29T09:32:30;12.80;55.30
10300;DHT22;5195;48.562;9.192;2023-12-29T09:34:55;12.90;55.20
10300;DHT22;5195;48.562;9.192;2023-12-29T09:37:23;12.60;55.60
10300;DHT22;5195;48.562;9.192;2023-12-29T09:39:49;12.50;55.50
10300;DHT22;5195;48.562;9.192;2023-12-29T09:42:19;12.70;55.60
10300;DHT22;5195;48.562;9.192;2023-12-29T09:44:40;13.00;55.20
10300;DHT22;5195;48.562;9.192;2023-12-29T09:47:07;13.30;54.60
10300;DHT22;5195;48.562;9.192;2023-12-29T09:49:39;13.50;54.20
10300;DHT22;5195;48.562;9.192;2023-12-29T09:52:02;13.40;54.10
10300;DHT22;5195;48.562;9.192;2023-12-29T09:54:28;13.00;55.40
10300;DHT22;5195;48.562;9.192;2023-12-29T09:56:53;13.00;54.70
10300;DHT22;5195;48.562;9.192;2023-12-29T09:59:19;12.80;55.00
10300;DHT22;5195;48.562;9.192;2023-12-29T10:01:46;12.70;55.20
10300;DHT22;5195;48.562;9.192;2023-12-29T10:04:12;12.60;55.30
10300;DHT22;5195;48.562;9.192;2023-12-29T10:06:38;12.50;55.40
10300;DHT22;5195;48.562;9.192;2023-12-29T10:09:03;12.70;55.20
10300;DHT22;5195;48.562;9.192;2023-12-29T10:11:28;13.00;54.60
10300;DHT22;5195;48.562;9.192;2023-12-29T10:14:09;13.30;54.10
10300;DHT22;5195;48.562;9.192;2023-12-29T10:16:44;13.30;54.10
10300;DHT22;5195;48.562;9.192;2023-12-29T10:19:39;13.30;54.10
10300;DHT22;5195;48.562;9.192;2023-12-29T10:22:21;13.40;54.00
10300;DHT22;5195;48.562;9.192;2023-12-29T10:24:56;13.60;53.30
10300;DHT22;5195;48.562;9.192;2023-12-29T10:27:32;13.80;52.40
10300;DHT22;5195;48.562;9.192;2023-12-29T10:30:09;13.70;52.50
10300;DHT22;5195;48.562;9.192;2023-12-29T10:32:43;13.40;53.20
10300;DHT22;5195;48.562;9.192;2023-12-29T10:35:19;13.10;53.70
10300;DHT22;5195;48.562;9.192;2023-12-29T10:37:58;13.30;54.00
10300;DHT22;5195;48.562;9.192;2023-12-29T10:40:30;13.60;53.60
10300;DHT22;5195;48.562;9.192;2023-12-29T10:43:06;13.80;53.60
10300;DHT22;5195;48.562;9.192;2023-12-29T10:45:41;13.90;53.40
10300;DHT22;5195;48.562;9.192;2023-12-29T10:48:21;14.00;53.40
10300;DHT22;5195;48.562;9.192;2023-12-29T10:50:56;14.00;53.50
10300;DHT22;5195;48.562;9.192;2023-12-29T10:53:32;14.10;52.50
10300;DHT22;5195;48.562;9.192;2023-12-29T10:56:17;14.40;51.30
10300;DHT22;5195;48.562;9.192;2023-12-29T10:58:57;14.80;50.60
10300;DHT22;5195;48.562;9.192;2023-12-29T11:01:36;14.80;50.20
10300;DHT22;5195;48.562;9.192;2023-12-29T11:04:08;14.70;50.60
10300;DHT22;5195;48.562;9.192;2023-12-29T11:06:44;14.60;50.70
10300;DHT22;5195;48.562;9.192;2023-12-29T11:09:30;14.60;50.70
10300;DHT22;5195;48.562;9.192;2023-12-29T11:12:07;14.40;50.90
10300;DHT22;5195;48.562;9.192;2023-12-29T11:14:42;14.20;51.20
10300;DHT22;5195;48.562;9.192;2023-12-29T11:17:18;13.90;51.30
10300;DHT22;5195;48.562;9.192;2023-12-29T11:19:54;13.60;51.80
10300;DHT22;5195;48.562;9.192;2023-12-29T11:22:31;13.60;51.80
10300;DHT22;5195;48.562;9.192;2023-12-29T11:25:07;13.50;52.00
10300;DHT22;5195;48.562;9.192;2023-12-29T11:27:42;13.60;50.90
10300;DHT22;5195;48.562;9.192;2023-12-29T11:30:18;13.90;50.30
10300;DHT22;5195;48.562;9.192;2023-12-29T11:32:59;14.10;50.10
10300;DHT22;5195;48.562;9.192;2023-12-29T11:38:24;14.10;50.00
10300;DHT22;5195;48.562;9.192;2023-12-29T11:41:16;13.90;50.10
10300;DHT22;5195;48.562;9.192;2023-12-29T11:43:56;13.90;50.10
10300;DHT22;5195;48.562;9.192;2023-12-29T11:46:45;14.20;49.90
10300;DHT22;5195;48.562;9.192;2023-12-29T11:49:21;14.30;49.30
10300;DHT22;5195;48.562;9.192;2023-12-29T11:51:57;14.50;48.90
10300;DHT22;5195;48.562;9.192;2023-12-29T11:54:33;14.30;49.20
10300;DHT22;5195;48.562;9.192;2023-12-29T11:57:08;14.00;49.90
10300;DHT22;5195;48.562;9.192;2023-12-29T11:59:47;14.20;49.90
10300;DHT22;5195;48.562;9.192;2023-12-29T12:02:27;14.20;49.90
10300;DHT22;5195;48.562;9.192;2023-12-29T12:05:02;14.50;49.40
10300;DHT22;5195;48.562;9.192;2023-12-29T12:12:55;14.50;50.90
10300;DHT22;5195;48.562;9.192;2023-12-29T12:15:31;14.80;50.60
10300;DHT22;5195;48.562;9.192;2023-12-29T12:18:10;15.40;49.40
10300;DHT22;5195;48.562;9.192;2023-12-29T12:20:47;15.30;49.50
10300;DHT22;5195;48.562;9.192;2023-12-29T12:23:20;15.30;49.50
10300;DHT22;5195;48.562;9.192;2023-12-29T12:25:57;15.30;49.50
10300;DHT22;5195;48.562;9.192;2023-12-29T12:28:32;15.20;49.40
10300;DHT22;5195;48.562;9.192;2023-12-29T12:31:09;15.20;49.40
10300;DHT22;5195;48.562;9.192;2023-12-29T12:33:52;15.10;49.60
10300;DHT22;5195;48.562;9.192;2023-12-29T12:36:20;15.10;49.20
10300;DHT22;5195;48.562;9.192;2023-12-29T12:38:56;15.30;48.70
10300;DHT22;5195;48.562;9.192;2023-12-29T12:41:32;15.10;48.10
10300;DHT22;5195;48.562;9.192;2023-12-29T12:44:12;15.10;48.10
10300;DHT22;5195;48.562;9.192;2023-12-29T12:49:23;14.70;49.30
10300;DHT22;5195;48.562;9.192;2023-12-29T12:51:59;14.70;48.20
10300;DHT22;5195;48.562;9.192;2023-12-29T12:54:34;14.90;48.00
10300;DHT22;5195;48.562;9.192;2023-12-29T12:57:10;15.00;47.60
10300;DHT22;5195;48.562;9.192;2023-12-29T12:59:46;15.10;46.90
10300;DHT22;5195;48.562;9.192;2023-12-29T13:02:21;15.20;47.00
10300;DHT22;5195;48.562;9.192;2023-12-29T13:04:56;15.00;47.30
10300;DHT22;5195;48.562;9.192;2023-12-29T13:07:33;14.30;49.10
10300;DHT22;5195;48.562;9.192;2023-12-29T13:10:08;14.40;48.50
10300;DHT22;5195;48.562;9.192;2023-12-29T13:12:52;14.40;48.50
10300;DHT22;5195;48.562;9.192;2023-12-29T13:15:20;14.40;48.40
10300;DHT22;5195;48.562;9.192;2023-12-29T13:17:57;14.30;47.50
10300;DHT22;5195;48.562;9.192;2023-12-29T13:20:42;14.30;47.50
10300;DHT22;5195;48.562;9.192;2023-12-29T13:23:08;14.30;47.50
10300;DHT22;5195;48.562;9.192;2023-12-29T13:25:43;14.10;47.70
10300;DHT22;5195;48.562;9.192;2023-12-29T13:28:20;14.10;46.50
10300;DHT22;5195;48.562;9.192;2023-12-29T13:30:57;14.10;46.80
10300;DHT22;5195;48.562;9.192;2023-12-29T13:36:29;14.00;46.00
10300;DHT22;5195;48.562;9.192;2023-12-29T13:39:38;14.00;46.40
10300;DHT22;5195;48.562;9.192;2023-12-29T13:41:50;14.10;45.50
10300;DHT22;5195;48.562;9.192;2023-12-29T13:44:26;14.20;45.40
10300;DHT22;5195;48.562;9.192;2023-12-29T13:47:02;14.20;45.40
10300;DHT22;5195;48.562;9.192;2023-12-29T13:49:37;14.20;45.60
10300;DHT22;5195;48.562;9.192;2023-12-29T13:52:13;14.20;44.70
10300;DHT22;5195;48.562;9.192;2023-12-29T13:54:49;14.20;45.10
10300;DHT22;5195;48.562;9.192;2023-12-29T13:57:34;14.20;44.20
10300;DHT22;5195;48.562;9.192;2023-12-29T14:00:14;14.20;44.50
10300;DHT22;5195;48.562;9.192;2023-12-29T14:05:32;14.30;43.20
10300;DHT22;5195;48.562;9.192;2023-12-29T14:08:16;14.30;43.20
10300;DHT22;5195;48.562;9.192;2023-12-29T14:10:46;14.10;44.00
10300;DHT22;5195;48.562;9.192;2023-12-29T14:13:22;14.10;43.00
10300;DHT22;5195;48.562;9.192;2023-12-29T14:15:58;14.30;42.40
10300;DHT22;5195;48.562;9.192;2023-12-29T14:21:30;14.20;42.50
10300;DHT22;5195;48.562;9.192;2023-12-29T14:24:12;14.40;42.20
10300;DHT22;5195;48.562;9.192;2023-12-29T14:26:55;14.20;42.50
10300;DHT22;5195;48.562;9.192;2023-12-29T14:29:33;14.20;42.30
10300;DHT22;5195;48.562;9.192;2023-12-29T14:32:05;13.90;42.50
10300;DHT22;5195;48.562;9.192;2023-12-29T14:34:41;13.60;43.10
10300;DHT22;5195;48.562;9.192;2023-12-29T14:37:16;13.30;43.60
10300;DHT22;5195;48.562;9.192;2023-12-29T14:39:53;13.40;43.00
10300;DHT22;5195;48.562;9.192;2023-12-29T14:42:28;13.70;42.80
10300;DHT22;5195;48.562;9.192;2023-12-29T14:45:04;13.90;42.40
10300;DHT22;5195;48.562;9.192;2023-12-29T14:47:40;14.00;42.10
10300;DHT22;5195;48.562;9.192;2023-12-29T14:50:16;14.10;42.40
10300;DHT22;5195;48.562;9.192;2023-12-29T14:52:51;13.90;42.70
10300;DHT22;5195;48.562;9.192;2023-12-29T14:55:27;13.70;42.60
10300;DHT22;5195;48.562;9.192;2023-12-29T14:58:02;13.50;43.00
10300;DHT22;5195;48.562;9.192;2023-12-29T15:00:38;13.20;43.60
10300;DHT22;5195;48.562;9.192;2023-12-29T15:03:13;12.90;44.10
10300;DHT22;5195;48.562;9.192;2023-12-29T15:05:49;12.70;44.50
10300;DHT22;5195;48.562;9.192;2023-12-29T15:08:26;12.50;44.90
10300;DHT22;5195;48.562;9.192;2023-12-29T15:11:02;12.30;45.10
10300;DHT22;5195;48.562;9.192;2023-12-29T15:13:38;12.80;44.30
10300;DHT22;5195;48.562;9.192;2023-12-29T15:16:14;12.80;44.30
10300;DHT22;5195;48.562;9.192;2023-12-29T15:18:49;13.10;43.90
10300;DHT22;5195;48.562;9.192;2023-12-29T15:21:25;13.20;43.60
10300;DHT22;5195;48.562;9.192;2023-12-29T15:24:00;13.10;43.80
10300;DHT22;5195;48.562;9.192;2023-12-29T15:26:36;12.70;44.30
10300;DHT22;5195;48.562;9.192;2023-12-29T15:29:11;12.80;44.30
10300;DHT22;5195;48.562;9.192;2023-12-29T15:31:47;12.90;44.00
10300;DHT22;5195;48.562;9.192;2023-12-29T15:34:23;12.80;44.10
10300;DHT22;5195;48.562;9.192;2023-12-29T15:36:58;12.80;44.30
10300;DHT22;5195;48.562;9.192;2023-12-29T15:39:34;12.70;44.50
10300;DHT22;5195;48.562;9.192;2023-12-29T15:42:11;12.60;44.50
10300;DHT22;5195;48.562;9.192;2023-12-29T15:44:47;12.50;44.60
10300;DHT22;5195;48.562;9.192;2023-12-29T15:47:23;12.20;45.50
10300;DHT22;5195;48.562;9.192;2023-12-29T15:50:00;12.30;45.20
10300;DHT22;5195;48.562;9.192;2023-12-29T15:52:36;12.20;45.20
10300;DHT22;5195;48.562;9.192;2023-12-29T15:55:13;11.90;45.50
10300;DHT22;5195;48.562;9.192;2023-12-29T15:57:48;11.70;45.90
10300;DHT22;5195;48.562;9.192;2023-12-29T16:00:24;11.80;46.80
10300;DHT22;5195;48.562;9.192;2023-12-29T16:02:59;12.10;45.80
10300;DHT22;5195;48.562;9.192;2023-12-29T16:05:35;12.00;45.70
10300;DHT22;5195;48.562;9.192;2023-12-29T16:08:11;11.70;46.00
10300;DHT22;5195;48.562;9.192;2023-12-29T16:10:47;11.50;46.40
10300;DHT22;5195;48.562;9.192;2023-12-29T16:13:24;11.60;46.60
10300;DHT22;5195;48.562;9.192;2023-12-29T16:16:02;11.60;46.50
10300;DHT22;5195;48.562;9.192;2023-12-29T16:18:35;11.70;46.40